Time;durP1;ratioP1;P1;durP2;ratioP2;P2;SDS_P1;SDS_P2;PMS_P1;PMS_P2;Temp;Humidity;BMP_temperature;BMP_pressure;BME280_temperature;BME280_humidity;BME280_pressure;Samples;Min_cycle;Max_cycle;Signal;HPM_P1;HPM_P2
2021/09/06 00:01:30;;;;;;;21.13;13.45;;;;;;;17.16;59.27;102310.72;10479263;28;20115;-79
2021/09/06 00:06:31;;;;;;;23.35;14.77;;;;;;;17.19;59.30;102310.31;10496761;28;20041;-79
2021/09/06 00:11:31;;;;;;;20.95;14.63;;;;;;;17.10;59.22;102309.66;10479220;28;20166;-79
2021/09/06 00:16:31;;;;;;;29.48;15.82;;;;;;;17.10;59.80;102306.06;10461347;28;20478;-80
2021/09/06 00:21:32;;;;;;;27.63;17.08;;;;;;;17.12;59.70;102312.19;10496723;28;20048;-79
2021/09/06 00:26:32;;;;;;;27.13;15.20;;;;;;;17.14;59.64;102312.84;10496419;28;20028;-79
2021/09/06 00:31:33;;;;;;;22.83;15.93;;;;;;;17.07;59.89;102309.22;10500977;28;20119;-79
2021/09/06 00:36:34;;;;;;;27.50;16.45;;;;;;;17.01;59.61;102299.97;10486718;28;20055;-79
2021/09/06 00:41:34;;;;;;;21.23;15.98;;;;;;;17.02;59.67;102293.41;10485631;28;20544;-79
2021/09/06 00:46:35;;;;;;;24.88;18.17;;;;;;;16.66;60.00;102256.25;10484567;28;20025;-79
2021/09/06 00:51:35;;;;;;;23.30;16.92;;;;;;;16.72;59.42;102271.84;10503571;28;20056;-80
2021/09/06 00:56:35;;;;;;;20.73;14.27;;;;;;;16.88;59.85;102298.03;10468362;28;20536;-79
2021/09/06 01:01:36;;;;;;;29.55;18.75;;;;;;;16.76;59.21;102305.13;10503518;28;20051;-79
2021/09/06 01:06:36;;;;;;;24.05;17.17;;;;;;;16.47;60.42;102260.59;10503704;28;20056;-79
2021/09/06 01:11:37;;;;;;;30.92;17.88;;;;;;;16.63;59.90;102280.44;10484502;28;20036;-79
2021/09/06 01:16:37;;;;;;;22.98;16.23;;;;;;;16.77;59.81;102315.00;10483966;28;20033;-80
2021/09/06 01:21:38;;;;;;;25.65;16.92;;;;;;;16.57;59.94;102278.50;10502507;28;20036;-79
2021/09/06 01:26:38;;;;;;;24.27;16.40;;;;;;;16.68;60.12;102313.47;10502128;28;20079;-79
2021/09/06 01:31:39;;;;;;;22.08;17.33;;;;;;;16.05;60.36;102228.84;10484107;28;20032;-81
2021/09/06 01:36:39;;;;;;;29.40;18.10;;;;;;;15.87;60.21;102212.13;10483913;28;20033;-79
2021/09/06 01:41:40;;;;;;;28.77;17.48;;;;;;;16.49;60.43;102326.81;10482913;28;20496;-79
2021/09/06 01:46:40;;;;;;;26.08;17.55;;;;;;;16.44;60.08;102310.19;10483823;28;20024;-80
2021/09/06 01:51:40;;;;;;;34.10;22.63;;;;;;;15.76;61.07;102227.16;10500949;28;20052;-79
2021/09/06 01:56:41;;;;;;;32.58;21.55;;;;;;;16.41;61.26;102313.34;10500637;28;20033;-79
2021/09/06 02:01:41;;;;;;;29.65;22.05;;;;;;;16.26;60.98;102283.38;10500864;28;20059;-79
2021/09/06 02:06:41;;;;;;;33.00;18.40;;;;;;;16.47;60.58;102314.44;10448854;28;20499;-80
2021/09/06 02:11:42;;;;;;;34.25;22.38;;;;;;;16.28;60.63;102294.13;10501406;28;20047;-80
2021/09/06 02:16:42;;;;;;;30.17;18.88;;;;;;;16.37;60.78;102316.66;10481288;28;20036;-79
2021/09/06 02:21:43;;;;;;;31.90;20.48;;;;;;;16.38;60.82;102329.31;10499426;28;20056;-79
2021/09/06 02:26:43;;;;;;;29.90;18.83;;;;;;;15.63;60.99;102224.31;10481527;28;20036;-80
2021/09/06 02:31:44;;;;;;;31.00;20.75;;;;;;;15.42;60.79;102173.34;10481264;28;20040;-79
2021/09/06 02:36:44;;;;;;;36.67;20.60;;;;;;;15.97;60.57;102264.50;10498853;28;20099;-79
2021/09/06 02:41:45;;;;;;;27.70;17.23;;;;;;;16.02;60.68;102283.88;10481042;28;20123;-79
2021/09/06 02:46:45;;;;;;;37.53;20.73;;;;;;;16.13;61.07;102302.44;10497620;28;20388;-80
2021/09/06 02:51:45;;;;;;;34.42;20.67;;;;;;;16.20;60.97;102316.16;10499346;28;20114;-80
2021/09/06 02:56:46;;;;;;;37.03;21.50;;;;;;;15.91;61.26;102278.97;10480894;28;20055;-80
2021/09/06 03:01:46;;;;;;;35.75;22.42;;;;;;;15.97;60.61;102292.66;10482064;28;20087;-80
2021/09/06 03:06:47;;;;;;;27.55;22.23;;;;;;;15.93;61.17;102296.84;10483209;28;20119;-80
2021/09/06 03:11:47;;;;;;;34.03;22.60;;;;;;;15.78;61.06;102274.25;10465160;28;20036;-79
2021/09/06 03:16:48;;;;;;;37.65;22.60;;;;;;;16.10;61.30;102327.44;10497465;28;20068;-80
2021/09/06 03:21:48;;;;;;;35.55;22.20;;;;;;;15.75;61.80;102267.28;10498380;28;20438;-80
2021/09/06 03:26:48;;;;;;;33.65;23.35;;;;;;;15.94;61.14;102290.31;10497777;28;20491;-80
2021/09/06 03:31:49;;;;;;;32.72;21.52;;;;;;;15.56;61.19;102227.81;10497738;28;20043;-80
2021/09/06 03:36:49;;;;;;;35.63;21.50;;;;;;;15.92;61.48;102291.56;10497758;28;20040;-79
2021/09/06 03:41:50;;;;;;;32.45;21.20;;;;;;;16.10;61.21;102315.66;10463936;28;20040;-80
2021/09/06 03:46:51;;;;;;;27.30;20.77;;;;;;;15.88;61.16;102279.34;10479037;28;20570;-80
2021/09/06 03:51:51;;;;;;;33.10;24.52;;;;;;;15.96;61.18;102309.28;10498579;28;20059;-79
2021/09/06 03:56:52;;;;;;;34.67;23.33;;;;;;;15.50;61.49;102234.06;10496177;28;20048;-80
2021/09/06 04:01:52;;;;;;;46.35;24.40;;;;;;;16.05;61.17;102313.53;10463109;28;20041;-80
2021/09/06 04:06:53;;;;;;;34.80;24.80;;;;;;;16.04;61.13;102317.28;10500598;28;20041;-80
2021/09/06 04:11:53;;;;;;;32.78;24.80;;;;;;;16.00;61.00;102316.84;10504627;28;20040;-80
2021/09/06 04:16:54;;;;;;;43.67;25.55;;;;;;;15.77;62.23;102292.53;10503869;28;20044;-80
2021/09/06 04:21:54;;;;;;;37.45;27.33;;;;;;;15.98;61.94;102324.41;10504031;28;20491;-80
2021/09/06 04:26:55;;;;;;;42.78;24.85;;;;;;;16.03;61.80;102357.44;10504355;28;20040;-80
2021/09/06 04:31:55;;;;;;;30.92;25.27;;;;;;;16.04;61.48;102334.53;10504365;28;20115;-80
2021/09/06 04:36:55;;;;;;;32.58;22.85;;;;;;;16.02;61.43;102336.63;10503992;28;20492;-79
2021/09/06 04:41:56;;;;;;;33.45;23.25;;;;;;;15.92;61.99;102335.28;10451702;28;20102;-82
2021/09/06 04:46:56;;;;;;;43.70;25.63;;;;;;;15.89;62.35;102336.53;10517048;28;20032;-82
2021/09/06 04:51:57;;;;;;;40.83;24.88;;;;;;;16.02;62.79;102339.38;10544700;28;20145;-82
2021/09/06 04:56:57;;;;;;;32.40;23.55;;;;;;;15.62;62.32;102274.50;10526595;28;20032;-81
2021/09/06 05:01:57;;;;;;;39.30;23.85;;;;;;;15.93;62.18;102320.59;10545023;28;20115;-82
2021/09/06 05:06:58;;;;;;;39.97;23.88;;;;;;;15.52;61.85;102256.56;10544666;28;20480;-80
2021/09/06 05:11:58;;;;;;;33.53;21.60;;;;;;;15.93;62.76;102326.91;10544500;28;20383;-81
2021/09/06 05:16:59;;;;;;;31.67;24.42;;;;;;;16.15;62.38;102354.19;10508868;28;20086;-80
2021/09/06 05:21:59;;;;;;;39.70;24.20;;;;;;;16.15;62.64;102360.50;10510878;28;20396;-80
2021/09/06 05:26:59;;;;;;;29.25;22.05;;;;;;;16.26;63.01;102359.09;10540173;28;20476;-80
2021/09/06 05:32:00;;;;;;;32.88;23.63;;;;;;;14.40;61.98;102066.25;10543750;28;20420;-79
2021/09/06 05:37:00;;;;;;;35.40;21.23;;;;;;;16.52;62.01;102367.44;10543103;28;20040;-80
2021/09/06 05:42:01;;;;;;;33.35;19.95;;;;;;;16.65;61.85;102377.63;10525008;28;20036;-79
2021/09/06 05:47:01;;;;;;;34.65;22.10;;;;;;;16.39;62.08;102317.31;10542537;28;20118;-81
2021/09/06 05:52:02;;;;;;;30.60;22.02;;;;;;;16.87;62.36;102383.88;10524097;28;20048;-80
2021/09/06 05:57:02;;;;;;;34.63;22.60;;;;;;;16.28;63.23;102275.84;10542741;28;20042;-80
2021/09/06 06:02:03;;;;;;;30.20;24.33;;;;;;;18.23;61.78;102397.47;10523636;28;20040;-80
2021/09/06 06:07:03;;;;;;;33.13;24.08;;;;;;;18.99;60.51;102387.81;10507172;28;20043;-80
2021/09/06 06:12:04;;;;;;;42.65;26.30;;;;;;;19.40;59.58;102381.06;10541428;28;20067;-79
2021/09/06 06:17:04;;;;;;;32.88;22.20;;;;;;;19.97;58.93;102369.06;10540701;28;20391;-80
2021/09/06 06:22:05;;;;;;;28.80;20.38;;;;;;;20.56;57.96;102377.84;10541020;28;20043;-79
2021/09/06 06:27:05;;;;;;;30.65;21.58;;;;;;;21.16;56.89;102403.81;10540658;28;20115;-77
2021/09/06 06:32:06;;;;;;;34.63;20.13;;;;;;;21.11;56.94;102386.06;10540614;28;20067;-77
2021/09/06 06:37:07;;;;;;;29.35;18.17;;;;;;;20.52;56.68;102227.16;10506432;28;20036;-77
2021/09/06 06:42:07;;;;;;;25.70;19.20;;;;;;;22.26;55.60;102387.75;10522480;28;20482;-77
2021/09/06 06:47:08;;;;;;;28.60;17.13;;;;;;;22.92;54.46;102406.88;10539647;28;20055;-78
2021/09/06 06:52:08;;;;;;;25.33;15.60;;;;;;;23.35;54.13;102413.88;10540104;28;20060;-78
2021/09/06 06:57:09;;;;;;;22.23;14.65;;;;;;;23.96;52.38;102375.44;10540191;28;20043;-78
2021/09/06 07:02:09;;;;;;;29.42;16.67;;;;;;;24.85;51.57;102407.78;10540344;28;20130;-78
2021/09/06 07:07:09;;;;;;;24.00;15.93;;;;;;;25.36;50.64;102408.44;10540172;28;20124;-78
2021/09/06 07:12:10;;;;;;;18.70;15.63;;;;;;;25.92;50.47;102407.09;10539687;28;20032;-78
2021/09/06 07:17:10;;;;;;;23.95;16.42;;;;;;;25.85;49.28;102380.66;10538425;28;20380;-78
2021/09/06 07:22:11;;;;;;;31.25;16.33;;;;;;;26.27;49.16;102419.59;10503894;28;20032;-79
2021/09/06 07:27:11;;;;;;;30.88;16.05;;;;;;;26.63;48.93;102422.63;10539698;28;20032;-79
2021/09/06 07:32:11;;;;;;;26.67;16.83;;;;;;;26.08;48.84;102340.59;10539177;28;20039;-78
2021/09/06 07:37:12;;;;;;;25.63;16.40;;;;;;;26.80;48.56;102430.78;10521424;28;20384;-79
2021/09/06 07:42:12;;;;;;;21.35;17.15;;;;;;;26.84;47.38;102429.16;10544694;28;20506;-78
2021/09/06 07:47:14;;;;;;;20.98;15.98;;;;;;;26.27;50.09;102436.25;10528649;28;20032;-79
2021/09/06 07:52:14;;;;;;;31.33;17.20;;;;;;;26.34;49.67;102452.69;10529667;28;20062;-79
2021/09/06 07:57:15;;;;;;;27.02;18.75;;;;;;;26.17;53.19;102425.06;10529188;28;20402;-79
2021/09/06 08:02:15;;;;;;;30.58;16.80;;;;;;;26.08;50.18;102454.41;10546864;28;20093;-79
2021/09/06 08:07:15;;;;;;;27.35;17.73;;;;;;;26.37;49.11;102382.72;10528144;28;20074;-79
2021/09/06 08:12:16;;;;;;;27.77;16.13;;;;;;;27.40;47.41;102390.41;10528345;28;20071;-79
2021/09/06 08:17:17;;;;;;;23.45;18.27;;;;;;;28.83;47.01;102479.56;10528043;28;20112;-79
2021/09/06 08:22:17;;;;;;;20.77;13.55;;;;;;;29.10;44.75;102472.81;10513089;28;20034;-79
2021/09/06 08:27:17;;;;;;;23.17;16.13;;;;;;;29.69;43.45;102465.56;10549542;28;20035;-80
2021/09/06 08:32:18;;;;;;;24.45;13.90;;;;;;;30.39;43.57;102491.31;10528855;28;20024;-80
2021/09/06 08:37:19;;;;;;;16.58;13.98;;;;;;;30.56;41.48;102485.28;10527417;28;20044;-80
2021/09/06 08:42:20;;;;;;;31.02;13.07;;;;;;;30.79;40.03;102464.06;10545394;28;20055;-80
2021/09/06 08:47:20;;;;;;;26.70;15.07;;;;;;;31.26;40.58;102474.41;10544283;28;20094;-80
2021/09/06 08:52:21;;;;;;;24.38;14.93;;;;;;;31.36;41.61;102486.63;10524668;28;20106;-80
2021/09/06 08:57:21;;;;;;;20.35;15.02;;;;;;;30.77;40.91;102463.56;10525041;28;20097;-80
2021/09/06 09:02:22;;;;;;;19.40;12.90;;;;;;;31.19;41.48;102487.94;10542025;28;20028;-80
2021/09/06 09:07:27;;;;;;;15.77;14.07;;;;;;;30.77;42.49;102478.38;10541832;28;20039;-82
2021/09/06 09:12:29;;;;;;;15.10;12.93;;;;;;;31.24;39.79;102495.47;10523651;28;20032;-81
2021/09/06 09:17:29;;;;;;;16.85;13.18;;;;;;;32.06;37.60;102472.72;10523597;28;20035;-81
2021/09/06 09:22:34;;;;;;;20.23;13.63;;;;;;;32.13;40.95;102473.19;10507246;28;20357;-81
2021/09/06 09:27:40;;;;;;;13.80;11.48;;;;;;;31.47;38.43;102421.81;10542096;28;20039;-81
2021/09/06 09:32:40;;;;;;;14.30;11.10;;;;;;;31.66;38.18;102454.59;10523490;28;20047;-82
2021/09/06 09:37:40;;;;;;;13.95;10.45;;;;;;;31.95;36.92;102472.06;10540926;28;20506;-83
2021/09/06 09:42:48;;;;;;;13.48;10.00;;;;;;;30.80;39.75;102325.91;10523238;28;20462;-83
2021/09/06 09:47:56;;;;;;;17.30;9.63;;;;;;;31.76;38.73;102471.22;10522638;28;20024;-83
2021/09/06 09:52:57;;;;;;;17.75;11.10;;;;;;;31.96;37.90;102482.13;10484633;28;1110572;-83
2021/09/06 09:57:57;;;;;;;14.25;9.18;;;;;;;31.22;38.59;102411.78;10524981;28;20054;-82
2021/09/06 10:02:59;;;;;;;15.73;10.88;;;;;;;31.49;36.03;102466.28;10523800;28;20124;-83
2021/09/06 10:08:01;;;;;;;14.05;8.65;;;;;;;31.84;36.41;102436.91;10490919;28;20036;-82
2021/09/06 10:13:06;;;;;;;17.73;11.10;;;;;;;32.04;38.95;102404.13;10524295;28;20382;-82
2021/09/06 10:18:14;;;;;;;14.27;11.05;;;;;;;32.79;38.30;102471.16;10523056;28;20114;-82
2021/09/06 10:23:18;;;;;;;10.80;9.18;;;;;;;32.98;39.17;102473.88;10523603;28;20372;-81
2021/09/06 10:28:18;;;;;;;14.20;9.68;;;;;;;32.89;34.48;102468.13;10524488;28;20479;-82
2021/09/06 10:33:33;;;;;;;14.07;11.00;;;;;;;31.54;38.13;102362.63;10541269;28;20032;-81
2021/09/06 10:38:38;;;;;;;13.90;11.23;;;;;;;32.15;39.25;102374.78;10523083;28;20032;-82
2021/09/06 10:43:43;;;;;;;8.83;8.03;;;;;;;32.55;34.73;102434.88;10523184;28;20032;-82
2021/09/06 10:48:44;;;;;;;16.15;10.10;;;;;;;32.68;35.23;102457.66;10505308;28;20330;-81
2021/09/06 10:53:44;;;;;;;9.30;8.43;;;;;;;32.69;37.24;102457.31;10523462;28;20048;-81
2021/09/06 10:58:49;;;;;;;20.55;7.95;;;;;;;32.63;37.00;102456.59;10545419;28;20216;-83
2021/09/06 11:03:51;;;;;;;9.60;8.63;;;;;;;32.93;33.36;102403.81;10544789;28;20469;-81
2021/09/06 11:08:53;;;;;;;11.75;9.02;;;;;;;33.48;33.00;102411.31;10540364;28;20042;-82
2021/09/06 11:13:53;;;;;;;13.60;10.73;;;;;;;33.52;34.19;102444.09;10522330;28;20417;-81
2021/09/06 11:18:54;;;;;;;11.93;7.47;;;;;;;33.81;32.30;102442.84;10539625;28;20410;-81
2021/09/06 11:23:54;;;;;;;15.63;8.35;;;;;;;33.27;30.96;102439.03;10539680;28;20387;-80
2021/09/06 11:28:55;;;;;;;8.05;7.25;;;;;;;33.47;31.15;102371.16;10540683;28;20032;-80
2021/09/06 11:34:00;;;;;;;8.43;6.70;;;;;;;33.45;35.00;102434.41;10522262;28;20032;-80
2021/09/06 11:39:01;;;;;;;9.98;7.78;;;;;;;32.05;32.36;102274.91;10505736;28;20040;-80
2021/09/06 11:44:01;;;;;;;14.27;7.93;;;;;;;33.45;31.00;102320.09;10521537;28;20081;-80
2021/09/06 11:49:02;;;;;;;9.18;6.85;;;;;;;33.82;29.89;102450.09;10504048;28;20138;-80
2021/09/06 11:54:02;;;;;;;9.88;7.47;;;;;;;33.82;33.60;102440.84;10539294;28;20086;-80
2021/09/06 11:59:03;;;;;;;16.08;8.07;;;;;;;33.76;30.68;102406.41;10521007;28;20333;-80
2021/09/06 12:04:10;;;;;;;17.48;6.68;;;;;;;34.02;31.84;102373.75;10539735;28;20043;-80
2021/09/06 12:09:11;;;;;;;7.18;6.47;;;;;;;34.88;29.14;102453.25;10520270;28;20055;-79
2021/09/06 12:14:12;;;;;;;11.45;7.65;;;;;;;34.82;29.84;102446.94;10504508;28;20035;-80
2021/09/06 12:19:20;;;;;;;9.38;6.80;;;;;;;33.89;33.08;102450.53;10503918;28;20032;-80
2021/09/06 12:24:24;;;;;;;15.27;9.10;;;;;;;32.86;29.34;102423.03;10538270;28;20032;-79
2021/09/06 12:29:26;;;;;;;11.65;8.60;;;;;;;32.58;29.87;102445.50;10545353;28;20039;-79
2021/09/06 12:34:27;;;;;;;11.73;8.48;;;;;;;33.79;33.26;102450.75;10527501;28;20387;-79
2021/09/06 12:39:31;;;;;;;7.78;6.75;;;;;;;34.21;28.67;102421.31;10546093;28;20036;-78
2021/09/06 12:44:32;;;;;;;11.98;8.43;;;;;;;35.01;28.57;102445.84;10527634;28;20038;-79
2021/09/06 12:49:32;;;;;;;12.20;8.90;;;;;;;34.49;30.49;102443.63;10509375;28;20040;-78
2021/09/06 12:54:33;;;;;;;23.77;8.88;;;;;;;34.47;29.85;102407.38;10526428;28;20039;-78
2021/09/06 12:59:33;;;;;;;10.75;8.65;;;;;;;34.00;31.88;102420.97;10526685;28;20040;-79
2021/09/06 13:04:34;;;;;;;9.97;8.97;;;;;;;34.28;30.29;102443.34;10526505;28;20090;-79
2021/09/06 13:09:34;;;;;;;8.50;7.60;;;;;;;33.53;31.35;102430.88;10526270;28;20646;-79
2021/09/06 13:14:35;;;;;;;12.57;7.90;;;;;;;32.64;32.52;102426.56;10525513;28;20032;-79
2021/09/06 13:19:35;;;;;;;16.85;8.55;;;;;;;32.39;32.53;102427.88;10543870;28;20033;-79
2021/09/06 13:24:35;;;;;;;15.02;8.63;;;;;;;32.26;32.85;102426.72;10525478;28;20025;-79
2021/09/06 13:29:36;;;;;;;11.32;8.60;;;;;;;32.21;33.22;102434.38;10525277;28;20032;-79
2021/09/06 13:34:36;;;;;;;13.18;9.57;;;;;;;32.46;31.97;102425.53;10508542;28;20387;-79
2021/09/06 13:39:37;;;;;;;11.57;9.00;;;;;;;33.10;31.33;102428.47;10542049;28;20062;-78
2021/09/06 13:44:37;;;;;;;11.98;10.50;;;;;;;32.88;31.73;102431.97;10543369;28;20035;-78
2021/09/06 13:49:37;;;;;;;8.27;7.25;;;;;;;32.02;32.79;102432.44;10542091;28;20060;-78
2021/09/06 13:54:38;;;;;;;17.23;8.48;;;;;;;31.83;33.31;102407.25;10543049;28;20036;-79
2021/09/06 13:59:38;;;;;;;9.57;8.03;;;;;;;30.64;35.53;102352.41;10542541;28;20066;-79
2021/09/06 14:04:39;;;;;;;15.73;9.33;;;;;;;30.21;36.37;102424.97;10542127;28;20791;-78
2021/09/06 14:09:40;;;;;;;11.40;10.07;;;;;;;30.93;35.42;102419.47;10541870;28;20621;-78
2021/09/06 14:14:41;;;;;;;12.13;10.48;;;;;;;30.93;33.77;102330.78;10542303;28;20068;-78
2021/09/06 14:19:41;;;;;;;16.15;8.55;;;;;;;31.79;32.58;102400.59;10522721;28;20070;-78
2021/09/06 14:24:42;;;;;;;9.88;8.82;;;;;;;31.34;33.86;102358.19;10540930;28;20032;-78
2021/09/06 14:29:42;;;;;;;15.23;9.23;;;;;;;32.07;31.96;102415.56;10522933;28;20090;-78
2021/09/06 14:34:43;;;;;;;14.23;9.02;;;;;;;32.25;31.62;102380.19;10541208;28;20020;-78
2021/09/06 14:39:43;;;;;;;7.85;7.15;;;;;;;32.68;34.19;102337.88;10540881;28;20401;-78
2021/09/06 14:44:44;;;;;;;13.63;9.68;;;;;;;32.94;32.24;102411.09;10540586;28;20533;-78
2021/09/06 14:49:44;;;;;;;10.73;9.00;;;;;;;32.69;32.06;102381.59;10539241;28;20058;-78
2021/09/06 14:54:45;;;;;;;11.05;8.13;;;;;;;32.18;32.51;102407.78;10540599;28;20632;-79
2021/09/06 14:59:45;;;;;;;13.35;9.32;;;;;;;31.14;33.81;102317.28;10540307;28;20106;-79
2021/09/06 15:04:46;;;;;;;11.88;9.82;;;;;;;30.95;34.55;102375.22;10539995;28;20554;-79
2021/09/06 15:09:46;;;;;;;15.27;9.77;;;;;;;30.39;36.38;102398.25;10540093;28;20055;-78
2021/09/06 15:14:47;;;;;;;15.18;10.48;;;;;;;30.11;35.31;102393.16;10522121;28;20311;-79
2021/09/06 15:19:48;;;;;;;17.73;10.07;;;;;;;29.69;36.11;102387.41;10538744;28;20433;-79
2021/09/06 15:24:48;;;;;;;16.40;12.68;;;;;;;29.54;36.57;102391.09;10539860;28;20066;-78
2021/09/06 15:30:00;;;;;;;22.75;10.57;;;;;;;28.90;40.54;102368.56;10539498;28;20050;-78
2021/09/06 15:35:01;;;;;;;12.15;9.65;;;;;;;28.70;38.34;102388.16;10521917;28;20031;-78
2021/09/06 15:40:02;;;;;;;18.08;11.75;;;;;;;28.15;41.41;102371.28;10539598;28;20507;-78
2021/09/06 15:45:03;;;;;;;16.27;10.40;;;;;;;27.93;39.68;102377.16;10538998;28;20036;-78
2021/09/06 15:50:04;;;;;;;10.98;9.45;;;;;;;27.69;41.01;102328.69;10538572;28;20110;-78
2021/09/06 15:55:05;;;;;;;13.93;9.45;;;;;;;27.92;38.76;102350.44;10538705;28;20043;-78
2021/09/06 16:00:06;;;;;;;14.90;11.73;;;;;;;27.81;39.53;102365.44;10538811;28;20031;-78
2021/09/06 16:05:07;;;;;;;19.13;9.35;;;;;;;27.64;41.99;102353.75;10528669;28;20081;-78
2021/09/06 16:10:08;;;;;;;12.95;10.20;;;;;;;27.67;40.82;102356.81;10528307;28;20103;-77
2021/09/06 16:15:09;;;;;;;16.95;10.50;;;;;;;27.66;40.65;102349.53;10546775;28;20102;-78
2021/09/06 16:20:10;;;;;;;13.18;9.07;;;;;;;27.35;41.43;102345.91;10510854;28;20066;-77
2021/09/06 16:25:10;;;;;;;14.02;10.45;;;;;;;26.78;42.36;102286.53;10528369;28;20500;-78
2021/09/06 16:30:11;;;;;;;19.17;9.90;;;;;;;27.36;41.90;102353.97;10545893;28;20029;-78
2021/09/06 16:35:12;;;;;;;15.82;10.45;;;;;;;26.60;41.50;102235.06;10527798;28;20089;-78
2021/09/06 16:40:12;;;;;;;14.68;11.52;;;;;;;27.23;42.55;102337.00;10545596;28;20028;-78
2021/09/06 16:45:13;;;;;;;13.43;9.70;;;;;;;27.08;42.42;102301.59;10527562;28;20106;-78
2021/09/06 16:50:13;;;;;;;14.48;9.77;;;;;;;27.37;42.78;102354.81;10545039;28;20063;-78
2021/09/06 16:55:14;;;;;;;19.55;10.25;;;;;;;27.13;42.58;102324.75;10545022;28;20036;-78
2021/09/06 17:00:15;;;;;;;13.35;9.75;;;;;;;27.28;42.78;102374.00;10510613;28;20032;-79
2021/09/06 17:05:16;;;;;;;14.88;11.88;;;;;;;27.13;42.83;102365.59;10544967;28;20032;-78
2021/09/06 17:10:19;;;;;;;16.70;11.65;;;;;;;26.18;44.55;102272.06;10544288;28;20072;-78
2021/09/06 17:15:20;;;;;;;12.90;8.95;;;;;;;26.48;45.13;102373.34;10544351;28;20028;-78
2021/09/06 17:20:20;;;;;;;16.20;10.00;;;;;;;26.56;44.95;102411.75;10526596;28;20501;-78
2021/09/06 17:25:22;;;;;;;16.58;11.60;;;;;;;26.36;45.11;102379.09;10544538;28;20047;-78
2021/09/06 17:30:22;;;;;;;13.13;10.57;;;;;;;25.40;46.66;102309.75;10544435;28;20114;-78
2021/09/06 17:35:23;;;;;;;18.83;13.38;;;;;;;25.76;46.99;102371.97;10543773;28;20250;-78
2021/09/06 17:40:23;;;;;;;15.10;10.32;;;;;;;25.54;47.25;102357.31;10543625;28;20105;-78
2021/09/06 17:45:25;;;;;;;18.30;13.23;;;;;;;25.43;47.45;102364.69;10525771;28;20418;-78
2021/09/06 17:50:27;;;;;;;18.20;12.73;;;;;;;25.46;47.30;102375.25;10524919;28;20066;-78
2021/09/06 17:55:28;;;;;;;18.73;11.77;;;;;;;25.33;46.77;102359.03;10543845;28;20040;-78
2021/09/06 18:00:28;;;;;;;20.15;11.85;;;;;;;25.32;45.52;102368.47;10525562;28;20446;-77
2021/09/06 18:05:28;;;;;;;15.40;10.45;;;;;;;24.67;47.04;102310.06;10542941;28;20138;-78
2021/09/06 18:10:29;;;;;;;25.20;12.20;;;;;;;24.82;47.10;102339.88;10507909;28;20055;-78
2021/09/06 18:15:30;;;;;;;18.52;11.48;;;;;;;24.95;46.28;102367.22;10524401;28;20036;-78
2021/09/06 18:20:30;;;;;;;15.07;11.93;;;;;;;24.31;46.45;102301.28;10541831;28;20040;-78
2021/09/06 18:25:30;;;;;;;17.45;10.20;;;;;;;24.57;46.23;102354.25;10539681;28;20046;-77
2021/09/06 18:30:33;;;;;;;16.65;11.48;;;;;;;24.31;47.25;102351.09;10524454;28;20028;-78
2021/09/06 18:35:33;;;;;;;19.23;12.23;;;;;;;24.32;47.28;102383.22;10491335;28;20045;-78
2021/09/06 18:40:34;;;;;;;27.85;13.25;;;;;;;24.18;47.67;102383.81;10523211;28;20040;-73
2021/09/06 18:45:34;;;;;;;24.70;12.40;;;;;;;23.46;48.06;102298.78;10505133;28;20032;-74
2021/09/06 18:50:35;;;;;;;17.67;11.52;;;;;;;23.85;47.89;102389.09;10539246;28;20131;-73
2021/09/06 18:55:35;;;;;;;12.40;11.13;;;;;;;23.32;48.30;102335.03;10521849;28;20032;-74
2021/09/06 19:00:36;;;;;;;12.68;10.27;;;;;;;23.58;48.49;102390.78;10539913;28;20479;-75
2021/09/06 19:05:36;;;;;;;18.00;11.07;;;;;;;23.50;48.55;102393.97;10540437;28;20028;-74
2021/09/06 19:10:37;;;;;;;19.55;11.52;;;;;;;22.77;48.46;102307.97;10524404;28;20543;-74
2021/09/06 19:15:37;;;;;;;16.98;11.77;;;;;;;22.71;48.83;102333.78;10540482;28;20119;-73
2021/09/06 19:20:38;;;;;;;25.05;13.00;;;;;;;23.11;49.04;102410.34;10538833;28;20146;-73
2021/09/06 19:25:38;;;;;;;17.63;13.10;;;;;;;23.06;49.25;102429.59;10538914;28;20028;-73
2021/09/06 19:30:38;;;;;;;25.70;13.48;;;;;;;22.92;49.62;102427.06;10520931;28;20039;-73
2021/09/06 19:35:39;;;;;;;27.40;14.75;;;;;;;22.89;49.75;102429.47;10542341;28;20360;-74
2021/09/06 19:40:39;;;;;;;20.10;13.10;;;;;;;22.81;50.38;102427.91;10547545;28;20040;-73
2021/09/06 19:45:40;;;;;;;25.35;12.75;;;;;;;22.70;50.04;102426.03;10547832;28;20063;-79
2021/09/06 19:50:40;;;;;;;20.65;11.95;;;;;;;22.68;50.05;102425.41;10547206;28;20507;-78
2021/09/06 19:55:41;;;;;;;18.63;13.15;;;;;;;22.59;50.05;102427.72;10547166;28;20514;-78
2021/09/06 20:00:41;;;;;;;22.98;12.68;;;;;;;22.26;50.13;102389.66;10547718;28;20110;-78
2021/09/06 20:05:42;;;;;;;23.83;13.80;;;;;;;22.28;50.24;102406.84;10529419;28;20059;-79
2021/09/06 20:10:45;;;;;;;29.30;12.40;;;;;;;22.38;49.81;102442.13;10548464;28;20483;-79
2021/09/06 20:15:45;;;;;;;29.02;13.82;;;;;;;22.32;50.13;102434.78;10547358;28;20024;-79
2021/09/06 20:20:46;;;;;;;25.60;12.52;;;;;;;21.67;50.71;102345.44;10528801;28;20039;-78
2021/09/06 20:25:46;;;;;;;21.95;13.98;;;;;;;21.90;50.16;102374.13;10529324;28;20036;-79
2021/09/06 20:30:47;;;;;;;16.25;13.52;;;;;;;22.39;50.72;102436.34;10545813;28;20071;-78
2021/09/06 20:35:47;;;;;;;26.42;15.98;;;;;;;22.10;50.92;102395.88;10527741;28;20032;-79
2021/09/06 20:40:48;;;;;;;26.05;14.68;;;;;;;22.18;51.07;102437.78;10526679;28;20060;-79
2021/09/06 20:45:48;;;;;;;18.85;13.55;;;;;;;21.95;50.96;102410.97;10526534;28;20368;-79
2021/09/06 20:50:49;;;;;;;21.30;14.63;;;;;;;21.96;51.62;102455.94;10544341;28;20056;-78
2021/09/06 20:55:49;;;;;;;20.90;14.27;;;;;;;21.68;53.12;102451.03;10526916;28;20440;-79
2021/09/06 21:00:49;;;;;;;24.45;15.07;;;;;;;21.55;53.37;102463.94;10544890;28;20048;-77
2021/09/06 21:05:50;;;;;;;23.13;15.60;;;;;;;21.43;53.83;102463.03;10544230;28;20357;-78
2021/09/06 21:10:50;;;;;;;29.55;16.58;;;;;;;19.95;53.81;102243.88;10544844;28;20127;-78
2021/09/06 21:15:51;;;;;;;26.75;17.70;;;;;;;21.01;54.99;102423.50;10543978;28;20036;-79
2021/09/06 21:20:51;;;;;;;20.30;16.30;;;;;;;21.06;55.14;102448.44;10543621;28;20036;-76
2021/09/06 21:25:52;;;;;;;29.73;17.08;;;;;;;20.65;55.30;102392.97;10526746;28;20082;-77
2021/09/06 21:30:52;;;;;;;25.08;15.55;;;;;;;21.01;55.03;102438.09;10525918;28;20036;-77
2021/09/06 21:35:53;;;;;;;22.00;15.20;;;;;;;20.94;55.62;102439.25;10467947;28;20488;-77
2021/09/06 21:40:53;;;;;;;26.33;16.65;;;;;;;20.87;55.07;102440.19;10526059;28;20537;-77
2021/09/06 21:45:53;;;;;;;23.63;17.33;;;;;;;20.75;54.97;102428.22;10543824;28;20047;-77
2021/09/06 21:50:56;;;;;;;25.80;15.75;;;;;;;20.26;55.05;102354.81;10507914;28;20494;-77
2021/09/06 21:55:56;;;;;;;33.00;18.75;;;;;;;20.65;55.14;102417.75;10542606;28;20039;-77
2021/09/06 22:00:56;;;;;;;30.13;17.83;;;;;;;20.72;55.17;102431.44;10541566;28;20040;-77
2021/09/06 22:05:57;;;;;;;32.35;16.48;;;;;;;20.47;55.42;102416.84;10524047;28;20074;-77
2021/09/06 22:10:57;;;;;;;26.67;17.65;;;;;;;20.33;55.14;102408.72;10524328;28;20047;-77
2021/09/06 22:15:57;;;;;;;23.75;18.27;;;;;;;20.64;55.12;102462.00;10524335;28;20063;-77
2021/09/06 22:20:58;;;;;;;21.23;16.67;;;;;;;20.57;54.95;102451.06;10541128;28;20040;-77
2021/09/06 22:25:58;;;;;;;37.90;18.73;;;;;;;20.39;55.24;102437.25;10523601;28;20054;-77
2021/09/06 22:30:59;;;;;;;30.48;18.73;;;;;;;20.32;55.54;102448.28;10541474;28;20063;-77
2021/09/06 22:35:59;;;;;;;29.85;20.48;;;;;;;19.89;56.14;102407.00;10523421;28;20061;-77